sensor_id;sensor_type;location;lat;lon;timestamp;temperature;humidity
16958;DHT22;8595;52.542;11.974;2024-03-02T17:17:04;13.00;99.90
16958;DHT22;8595;52.542;11.974;2024-03-02T17:19:31;13.00;99.90
16958;DHT22;8595;52.542;11.974;2024-03-02T17:21:57;12.90;99.90
16958;DHT22;8595;52.542;11.974;2024-03-02T17:24:24;12.90;99.90
16958;DHT22;8595;52.542;11.974;2024-03-02T17:26:51;12.80;99.90
16958;DHT22;8595;52.542;11.974;2024-03-02T17:29:18;12.70;99.90
16958;DHT22;8595;52.542;11.974;2024-03-02T17:31:44;12.70;99.90
16958;DHT22;8595;52.542;11.974;2024-03-02T17:34:12;12.60;99.90
16958;DHT22;8595;52.542;11.974;2024-03-02T17:36:39;12.50;99.90
16958;DHT22;8595;52.542;11.974;2024-03-02T17:39:06;12.50;99.90
16958;DHT22;8595;52.542;11.974;2024-03-02T17:41:34;12.50;99.90
16958;DHT22;8595;52.542;11.974;2024-03-02T17:44:01;12.40;99.90
16958;DHT22;8595;52.542;11.974;2024-03-02T17:46:28;12.40;99.90
16958;DHT22;8595;52.542;11.974;2024-03-02T17:48:54;12.30;99.90
16958;DHT22;8595;52.542;11.974;2024-03-02T17:51:22;12.20;99.90
16958;DHT22;8595;52.542;11.974;2024-03-02T17:53:49;12.10;99.90
16958;DHT22;8595;52.542;11.974;2024-03-02T17:56:17;12.20;99.90
16958;DHT22;8595;52.542;11.974;2024-03-02T17:58:43;12.10;99.90
16958;DHT22;8595;52.542;11.974;2024-03-02T18:01:10;12.00;99.90
16958;DHT22;8595;52.542;11.974;2024-03-02T18:03:37;12.00;99.90
16958;DHT22;8595;52.542;11.974;2024-03-02T18:06:04;12.00;99.90
16958;DHT22;8595;52.542;11.974;2024-03-02T18:08:32;12.00;99.90
16958;DHT22;8595;52.542;11.974;2024-03-02T18:11:00;12.00;99.90
16958;DHT22;8595;52.542;11.974;2024-03-02T18:13:26;12.00;99.90
16958;DHT22;8595;52.542;11.974;2024-03-02T18:15:54;11.90;99.90
16958;DHT22;8595;52.542;11.974;2024-03-02T18:18:21;11.90;99.90
16958;DHT22;8595;52.542;11.974;2024-03-02T18:20:47;11.80;99.90
16958;DHT22;8595;52.542;11.974;2024-03-02T18:23:15;11.80;99.90
16958;DHT22;8595;52.542;11.974;2024-03-02T18:25:43;11.70;99.90
16958;DHT22;8595;52.542;11.974;2024-03-02T18:28:12;11.70;99.90
16958;DHT22;8595;52.542;11.974;2024-03-02T18:30:39;11.60;99.90
16958;DHT22;8595;52.542;11.974;2024-03-02T18:33:06;11.60;99.90
16958;DHT22;8595;52.542;11.974;2024-03-02T18:35:33;11.50;99.90
16958;DHT22;8595;52.542;11.974;2024-03-02T18:38:01;11.50;99.90
16958;DHT22;8595;52.542;11.974;2024-03-02T18:40:28;11.40;99.90
16958;DHT22;8595;52.542;11.974;2024-03-02T18:42:56;11.40;99.90
16958;DHT22;8595;52.542;11.974;2024-03-02T18:45:24;11.40;99.90
16958;DHT22;8595;52.542;11.974;2024-03-02T18:47:51;11.40;99.90
16958;DHT22;8595;52.542;11.974;2024-03-02T18:50:19;11.40;99.90
16958;DHT22;8595;52.542;11.974;2024-03-02T18:52:45;11.30;99.90
16958;DHT22;8595;52.542;11.974;2024-03-02T18:55:13;11.30;99.90
16958;DHT22;8595;52.542;11.974;2024-03-02T18:57:39;11.30;99.90
16958;DHT22;8595;52.542;11.974;2024-03-02T19:00:08;11.30;99.90
16958;DHT22;8595;52.542;11.974;2024-03-02T19:02:35;11.20;99.90
16958;DHT22;8595;52.542;11.974;2024-03-02T19:05:03;11.20;99.90
16958;DHT22;8595;52.542;11.974;2024-03-02T19:07:30;11.20;99.90
16958;DHT22;8595;52.542;11.974;2024-03-02T19:09:57;11.20;99.90
16958;DHT22;8595;52.542;11.974;2024-03-02T19:12:24;11.20;99.90
16958;DHT22;8595;52.542;11.974;2024-03-02T19:14:50;11.10;99.90
16958;DHT22;8595;52.542;11.974;2024-03-02T19:17:19;11.10;99.90
16958;DHT22;8595;52.542;11.974;2024-03-02T19:19:45;11.20;99.90
16958;DHT22;8595;52.542;11.974;2024-03-02T19:22:12;11.10;99.90
16958;DHT22;8595;52.542;11.974;2024-03-02T19:24:38;11.10;99.90
16958;DHT22;8595;52.542;11.974;2024-03-02T19:27:05;11.00;99.90
16958;DHT22;8595;52.542;11.974;2024-03-02T19:29:32;11.00;99.90
16958;DHT22;8595;52.542;11.974;2024-03-02T19:31:59;10.90;99.90
16958;DHT22;8595;52.542;11.974;2024-03-02T19:34:27;10.90;99.90
16958;DHT22;8595;52.542;11.974;2024-03-02T19:36:53;10.90;99.90
16958;DHT22;8595;52.542;11.974;2024-03-02T19:39:22;10.80;99.90
16958;DHT22;8595;52.542;11.974;2024-03-02T19:41:51;10.80;99.90
16958;DHT22;8595;52.542;11.974;2024-03-02T19:44:18;10.80;99.90
16958;DHT22;8595;52.542;11.974;2024-03-02T19:46:45;10.80;99.90
16958;DHT22;8595;52.542;11.974;2024-03-02T19:49:11;10.70;99.90
16958;DHT22;8595;52.542;11.974;2024-03-02T19:51:39;10.80;99.90
16958;DHT22;8595;52.542;11.974;2024-03-02T19:54:06;10.80;99.90
16958;DHT22;8595;52.542;11.974;2024-03-02T19:56:34;10.80;99.90
16958;DHT22;8595;52.542;11.974;2024-03-02T19:59:02;10.80;99.90
16958;DHT22;8595;52.542;11.974;2024-03-02T20:01:29;10.80;99.90
16958;DHT22;8595;52.542;11.974;2024-03-02T20:03:55;10.80;99.90
16958;DHT22;8595;52.542;11.974;2024-03-02T20:06:22;10.80;99.90
16958;DHT22;8595;52.542;11.974;2024-03-02T20:08:50;10.70;99.90
16958;DHT22;8595;52.542;11.974;2024-03-02T20:11:16;10.70;99.90
16958;DHT22;8595;52.542;11.974;2024-03-02T20:13:43;10.70;99.90
16958;DHT22;8595;52.542;11.974;2024-03-02T20:16:10;10.70;99.90
16958;DHT22;8595;52.542;11.974;2024-03-02T20:18:36;10.70;99.90
16958;DHT22;8595;52.542;11.974;2024-03-02T20:21:04;10.70;99.90
16958;DHT22;8595;52.542;11.974;2024-03-02T20:23:30;10.70;99.90
16958;DHT22;8595;52.542;11.974;2024-03-02T20:25:58;10.70;99.90
16958;DHT22;8595;52.542;11.974;2024-03-02T20:28:25;10.60;99.90
16958;DHT22;8595;52.542;11.974;2024-03-02T20:30:52;10.60;99.90
16958;DHT22;8595;52.542;11.974;2024-03-02T20:33:18;10.60;99.90
16958;DHT22;8595;52.542;11.974;2024-03-02T20:35:45;10.60;99.90
16958;DHT22;8595;52.542;11.974;2024-03-02T20:38:11;10.70;99.90
16958;DHT22;8595;52.542;11.974;2024-03-02T20:40:38;10.60;99.90
16958;DHT22;8595;52.542;11.974;2024-03-02T20:43:07;10.60;99.90
16958;DHT22;8595;52.542;11.974;2024-03-02T20:45:34;10.70;99.90
16958;DHT22;8595;52.542;11.974;2024-03-02T20:48:01;10.70;99.90
16958;DHT22;8595;52.542;11.974;2024-03-02T20:50:27;10.70;99.90
16958;DHT22;8595;52.542;11.974;2024-03-02T20:52:54;10.80;99.90
16958;DHT22;8595;52.542;11.974;2024-03-02T20:55:24;10.80;99.90
16958;DHT22;8595;52.542;11.974;2024-03-02T20:57:51;10.70;99.90
16958;DHT22;8595;52.542;11.974;2024-03-02T21:00:19;10.70;99.90
16958;DHT22;8595;52.542;11.974;2024-03-02T21:02:46;10.60;99.90
16958;DHT22;8595;52.542;11.974;2024-03-02T21:05:13;10.60;99.90
16958;DHT22;8595;52.542;11.974;2024-03-02T21:07:40;10.60;99.90
16958;DHT22;8595;52.542;11.974;2024-03-02T21:10:07;10.50;99.90
16958;DHT22;8595;52.542;11.974;2024-03-02T21:12:35;10.50;99.90
16958;DHT22;8595;52.542;11.974;2024-03-02T21:15:01;10.50;99.90
16958;DHT22;8595;52.542;11.974;2024-03-02T21:17:29;10.50;99.90
16958;DHT22;8595;52.542;11.974;2024-03-02T21:19:56;10.40;99.90
16958;DHT22;8595;52.542;11.974;2024-03-02T21:22:23;10.40;99.90
16958;DHT22;8595;52.542;11.974;2024-03-02T21:24:49;10.40;99.90
16958;DHT22;8595;52.542;11.974;2024-03-02T21:27:17;10.30;99.90
16958;DHT22;8595;52.542;11.974;2024-03-02T21:29:43;10.30;99.90
16958;DHT22;8595;52.542;11.974;2024-03-02T21:32:10;10.30;99.90
16958;DHT22;8595;52.542;11.974;2024-03-02T21:34:38;10.30;99.90
16958;DHT22;8595;52.542;11.974;2024-03-02T21:37:06;10.30;99.90
16958;DHT22;8595;52.542;11.974;2024-03-02T21:39:34;10.20;99.90
16958;DHT22;8595;52.542;11.974;2024-03-02T21:42:01;10.20;99.90
16958;DHT22;8595;52.542;11.974;2024-03-02T21:44:27;10.10;99.90
16958;DHT22;8595;52.542;11.974;2024-03-02T21:46:54;10.10;99.90
16958;DHT22;8595;52.542;11.974;2024-03-02T21:49:20;10.10;99.90
16958;DHT22;8595;52.542;11.974;2024-03-02T21:51:49;10.00;99.90
16958;DHT22;8595;52.542;11.974;2024-03-02T21:54:15;10.00;99.90
16958;DHT22;8595;52.542;11.974;2024-03-02T21:56:42;10.00;99.90
16958;DHT22;8595;52.542;11.974;2024-03-02T21:59:09;9.90;99.90
16958;DHT22;8595;52.542;11.974;2024-03-02T22:01:35;9.90;99.90
16958;DHT22;8595;52.542;11.974;2024-03-02T22:04:02;9.80;99.90
16958;DHT22;8595;52.542;11.974;2024-03-02T22:06:29;9.90;99.90
16958;DHT22;8595;52.542;11.974;2024-03-02T22:08:57;9.90;99.90
16958;DHT22;8595;52.542;11.974;2024-03-02T22:11:24;9.90;99.90
16958;DHT22;8595;52.542;11.974;2024-03-02T22:13:50;9.90;99.90
16958;DHT22;8595;52.542;11.974;2024-03-02T22:16:17;9.90;99.90
16958;DHT22;8595;52.542;11.974;2024-03-02T22:18:43;9.90;99.90
16958;DHT22;8595;52.542;11.974;2024-03-02T22:21:10;9.90;99.90
16958;DHT22;8595;52.542;11.974;2024-03-02T22:23:37;9.80;99.90
16958;DHT22;8595;52.542;11.974;2024-03-02T22:26:05;9.80;99.90
16958;DHT22;8595;52.542;11.974;2024-03-02T22:28:31;9.80;99.90
16958;DHT22;8595;52.542;11.974;2024-03-02T22:30:58;9.80;99.90
16958;DHT22;8595;52.542;11.974;2024-03-02T22:33:25;9.80;99.90
16958;DHT22;8595;52.542;11.974;2024-03-02T22:35:51;9.80;99.90
16958;DHT22;8595;52.542;11.974;2024-03-02T22:38:18;9.80;99.90
16958;DHT22;8595;52.542;11.974;2024-03-02T22:40:45;9.80;99.90
16958;DHT22;8595;52.542;11.974;2024-03-02T22:43:13;9.80;99.90
16958;DHT22;8595;52.542;11.974;2024-03-02T22:45:39;9.70;99.90
16958;DHT22;8595;52.542;11.974;2024-03-02T22:48:07;9.80;99.90
16958;DHT22;8595;52.542;11.974;2024-03-02T22:50:33;9.70;99.90
16958;DHT22;8595;52.542;11.974;2024-03-02T22:53:00;9.70;99.90
16958;DHT22;8595;52.542;11.974;2024-03-02T22:55:27;9.70;99.90
16958;DHT22;8595;52.542;11.974;2024-03-02T22:57:53;9.70;99.90
16958;DHT22;8595;52.542;11.974;2024-03-02T23:00:23;9.60;99.90
16958;DHT22;8595;52.542;11.974;2024-03-02T23:03:00;9.60;99.90
16958;DHT22;8595;52.542;11.974;2024-03-02T23:05:27;9.70;99.90
16958;DHT22;8595;52.542;11.974;2024-03-02T23:07:53;9.60;99.90
16958;DHT22;8595;52.542;11.974;2024-03-02T23:10:20;9.60;99.90
16958;DHT22;8595;52.542;11.974;2024-03-02T23:12:46;9.60;99.90
16958;DHT22;8595;52.542;11.974;2024-03-02T23:15:13;9.60;99.90
16958;DHT22;8595;52.542;11.974;2024-03-02T23:17:41;9.60;99.90
16958;DHT22;8595;52.542;11.974;2024-03-02T23:20:08;9.50;99.90
16958;DHT22;8595;52.542;11.974;2024-03-02T23:22:35;9.50;99.90
16958;DHT22;8595;52.542;11.974;2024-03-02T23:25:02;9.40;99.90
16958;DHT22;8595;52.542;11.974;2024-03-02T23:27:28;9.40;99.90
16958;DHT22;8595;52.542;11.974;2024-03-02T23:29:55;9.40;99.90
16958;DHT22;8595;52.542;11.974;2024-03-02T23:32:22;9.40;99.90
16958;DHT22;8595;52.542;11.974;2024-03-02T23:34:50;9.40;99.90
16958;DHT22;8595;52.542;11.974;2024-03-02T23:37:17;9.40;99.90
16958;DHT22;8595;52.542;11.974;2024-03-02T23:39:43;9.40;99.90
16958;DHT22;8595;52.542;11.974;2024-03-02T23:42:35;9.50;99.90
16958;DHT22;8595;52.542;11.974;2024-03-02T23:45:02;9.50;99.90
16958;DHT22;8595;52.542;11.974;2024-03-02T23:47:29;9.50;99.90
16958;DHT22;8595;52.542;11.974;2024-03-02T23:49:57;9.40;99.90
16958;DHT22;8595;52.542;11.974;2024-03-02T23:52:24;9.40;99.90
16958;DHT22;8595;52.542;11.974;2024-03-02T23:54:50;9.50;99.90
16958;DHT22;8595;52.542;11.974;2024-03-02T23:57:17;9.40;99.90
16958;DHT22;8595;52.542;11.974;2024-03-02T23:59:43;9.40;99.90
